Aérodrome :
LOGIN :

S'inscrire | Disclaimer

   EN    FR    IT 

 










Légende :    VFR   VFR Marginal   IFR   IFR Intensif   IFR Très Intensif
Visi : 
Plafond : 
>= 8 km
>= 3000ft
5 à 8 km
1000 à 3000 ft
1500m à 5 km
500 à 1000 ft
800 à 1500m
200 à 500 ft
< 800m
< 200 ft
Symboles :   Orages  Brouillard  Fortes neiges  Fortes précipitations  Vent > 20 kt
SIGMETs :   Divers  Orages  Givrage  Turbulence  Onde Orograph.  Cendres Volcan.







- Altitude de l'aérodrome : 1411 ft
- Code IATA : ZHI


LSZG - Grenchen

DERNIER METAR :
  • 180720Z VRB01KT 6000 VCFG NSC 08/08 Q1019 REDZ NOSIG

METARs EXPIRÉS :
  • 180650Z 08001KT 4000 0400SW PRFG NSC 05/05 Q1018 TEMPO 0300 FG
  • 180620Z 00000KT 0100 FG VV000 05/05 Q1018 NOSIG
  • 180550Z 11001KT 0150 FG VV000 04/04 Q1018 NOSIG
  • 180520Z AUTO 00000KT 0200 FG VV001 05/05 Q1018 REDZ
  • 180450Z AUTO VRB01KT 2100 BR NSC 06/06 Q1018 REDZ

TAF TAF LSZG
Valide du 18 à 06h jusqu'au 18 à 15h UTC


180525Z 1806/1815 VRB03KT 3000 MIFG NSC
PROB40 1806/1808 1200 BCFG
BECMG 1807/1809 CAVOK
BECMG 1808/1811 05010KT
ATIS : +41 32 396 96 33
Pas de NOTAMs connus pour ce terrain.



MET'MAP, la Météo Aéronautique d'un coup d'oeil ! - Copyright ORBIFLY Décembre 2007 - Disclaimer

ORBIFLY MET'MAP TEAM :

Programmation & Développement : Alexandra Zaïnal
Conception & Développement : Baudouin d'Aumeries
Co-Programmation & Développement : Marc-Olivier Méhu
Soutien technique & logistique : Manuel Goepfert

Contact : metmap@orbifly.com




SOURCES & CREDITS :

   NOAA